Pikeville, Pennsylvania
Current Conditions -  °F | °C
As of 6:54 PM on Saturday 20 Dec 2014 (Local Time) from KRDG Reporting Station
Overcast Overcast  
Wind Chill: 33°   Ceiling: 3100
Heat Index: 33°   Visibility: 10mi
Dew Point: 20°   Wind: 3mph
Humidity: 59%   Direction: 340°NNW
Pressure: 30.28"   Gusts: NA
Location:  40.3836°N, 75.7884°W
Report Text: KRDG 202354Z AUTO 34003KT 10SM OVC031 01/M07 A3028 RMK AO2 SLP263 T00061067 10011 20006 53012
Loading
Personal Weather Stations






























Interactive Weather Map New forecast layout! Learn more

10-Day Weather Forecast

Advertisements
Track Severe Weather on mobile